Panola, Oklahoma
Current Conditions -  °F | °C
As of 11:15 PM on Sunday 19 Oct 2014 (Local Time) from KGZL Reporting Station
Broken Clouds Broken Clouds  
Wind Chill: 57°   Ceiling: 4600
Heat Index: 57°   Visibility: 10mi
Dew Point: 52°   Wind: 0mph
Humidity: 82%   Direction: NA
Pressure: 30.08"   Gusts: NA
Location:  34.93°N, 95.21°W
Report Text: KGZL 200415Z AUTO 00000KT 10SM BKN046 14/11 A3008 RMK AO2
Loading
Personal Weather Stations






























Interactive Weather Map
Tropical Storm Tracking
New forecast layout! Learn more

10-Day Weather Forecast

Advertisements
Track Severe Weather on mobile